createdAt,value
2023-02-01T00:03:24.889Z,10.11
2023-02-01T00:08:28.469Z,10.16
2023-02-01T00:13:33.946Z,10.22
2023-02-01T00:18:37.523Z,10.24
2023-02-01T00:23:41.208Z,10.25
2023-02-01T00:28:45.280Z,10.33
2023-02-01T00:33:49.530Z,10.38
2023-02-01T00:38:52.799Z,10.41
2023-02-01T00:43:56.063Z,10.48
2023-02-01T00:48:59.491Z,10.47
2023-02-01T00:54:02.762Z,10.46
2023-02-01T00:59:06.290Z,10.43
2023-02-01T01:04:09.724Z,10.43
2023-02-01T01:09:13.178Z,10.41
2023-02-01T01:14:16.501Z,10.46
2023-02-01T01:19:19.741Z,10.46
2023-02-01T01:24:22.884Z,10.48
2023-02-01T01:29:26.075Z,10.59
2023-02-01T01:34:29.076Z,10.70
2023-02-01T01:39:32.159Z,10.79
2023-02-01T01:45:06.098Z,10.92
2023-02-01T01:50:17.470Z,11.01
2023-02-01T01:55:23.665Z,11.01
2023-02-01T02:00:27.694Z,10.99
2023-02-01T02:05:33.309Z,10.92
2023-02-01T02:10:37.742Z,10.82
2023-02-01T02:15:49.944Z,10.88
2023-02-01T02:20:53.097Z,10.90
2023-02-01T02:26:24.243Z,10.99
2023-02-01T02:31:55.613Z,11.12
2023-02-01T02:37:31.947Z,11.07
2023-02-01T02:43:01.057Z,10.84
2023-02-01T02:48:30.121Z,10.73
2023-02-01T02:54:05.551Z,10.73
2023-02-01T02:59:11.238Z,10.75
2023-02-01T03:04:16.183Z,10.77
2023-02-01T03:09:37.846Z,10.84
2023-02-01T03:14:44.884Z,10.95
2023-02-01T03:19:52.301Z,11.01
2023-02-01T03:25:00.735Z,11.00
2023-02-01T03:30:16.789Z,10.61
2023-02-01T03:35:28.887Z,10.18
2023-02-01T03:40:36.587Z,9.99
2023-02-01T03:45:44.933Z,10.00
2023-02-01T03:50:55.626Z,10.06
2023-02-01T03:55:59.852Z,10.09
2023-02-01T04:01:03.284Z,10.10
2023-02-01T04:06:10.567Z,10.11
2023-02-01T04:11:13.788Z,10.17
2023-02-01T04:16:17.780Z,10.22
2023-02-01T04:21:20.941Z,10.23
2023-02-01T04:26:24.553Z,10.26
2023-02-01T04:31:27.842Z,10.31
2023-02-01T04:36:31.111Z,10.39
2023-02-01T04:41:34.184Z,10.47
2023-02-01T04:46:37.351Z,10.57
2023-02-01T04:51:40.370Z,10.62
2023-02-01T04:56:44.198Z,10.70
2023-02-01T05:01:49.061Z,10.87
2023-02-01T05:06:52.619Z,10.99
2023-02-01T05:11:55.771Z,11.17
2023-02-01T05:16:58.793Z,11.29
2023-02-01T05:22:02.009Z,11.42
2023-02-01T05:27:05.418Z,10.62
2023-02-01T05:32:21.516Z,10.31
2023-02-01T05:37:26.302Z,10.16
2023-02-01T05:42:29.287Z,10.14
2023-02-01T05:47:33.154Z,10.15
2023-02-01T05:52:36.384Z,10.32
2023-02-01T05:57:39.511Z,10.37
2023-02-01T06:02:42.761Z,10.57
2023-02-01T06:07:46.160Z,10.88
2023-02-01T06:12:49.605Z,11.01
2023-02-01T06:17:52.930Z,10.74
2023-02-01T06:22:57.610Z,10.21
2023-02-01T06:28:02.484Z,9.82
2023-02-01T06:33:05.847Z,9.66
2023-02-01T06:38:09.237Z,9.46
2023-02-01T06:43:12.493Z,9.27
2023-02-01T06:48:16.159Z,9.23
2023-02-01T06:53:19.358Z,9.07
2023-02-01T06:58:22.580Z,9.13
2023-02-01T07:03:25.906Z,9.35
2023-02-01T07:08:30.348Z,9.64
2023-02-01T07:13:33.845Z,9.90
2023-02-01T07:18:37.103Z,10.05
2023-02-01T07:23:40.465Z,10.12
2023-02-01T07:28:43.455Z,10.31
2023-02-01T07:33:46.880Z,10.38
2023-02-01T07:38:50.206Z,10.56
2023-02-01T07:43:53.846Z,10.82
2023-02-01T07:48:56.962Z,11.12
2023-02-01T07:54:00.061Z,11.44
2023-02-01T07:59:04.165Z,11.56
2023-02-01T08:04:07.300Z,11.74
2023-02-01T08:09:12.196Z,11.88
2023-02-01T08:14:15.367Z,11.90
2023-02-01T08:19:18.531Z,11.30
2023-02-01T08:24:23.095Z,10.37
2023-02-01T08:29:27.573Z,9.94
2023-02-01T08:34:30.737Z,10.16
2023-02-01T08:39:33.700Z,10.51
2023-02-01T08:44:37.084Z,10.73
2023-02-01T08:49:40.995Z,10.97
2023-02-01T08:54:44.601Z,10.91
2023-02-01T08:59:47.604Z,10.79
2023-02-01T09:04:50.581Z,10.66
2023-02-01T09:09:53.787Z,9.60
2023-02-01T09:14:57.294Z,8.87
2023-02-01T09:20:00.463Z,8.91
2023-02-01T09:25:03.979Z,9.09
2023-02-01T09:30:08.961Z,9.12
2023-02-01T09:35:12.147Z,9.07
2023-02-01T09:40:18.088Z,9.03
2023-02-01T09:45:51.158Z,9.21
2023-02-01T09:50:59.812Z,9.30
2023-02-01T09:56:11.933Z,9.34
2023-02-01T10:01:27.165Z,9.67
2023-02-01T10:06:58.845Z,9.79
2023-02-01T10:12:32.269Z,9.89
2023-02-01T10:18:06.352Z,9.86
2023-02-01T10:23:32.933Z,9.72
2023-02-01T10:28:37.505Z,8.98
2023-02-01T10:33:45.727Z,8.79
2023-02-01T10:38:49.458Z,8.90
2023-02-01T10:43:58.429Z,9.08
2023-02-01T10:49:04.890Z,9.21
2023-02-01T10:54:34.836Z,9.28
2023-02-01T10:59:38.145Z,9.30
2023-02-01T11:04:41.367Z,9.40
2023-02-01T11:09:51.600Z,9.50
2023-02-01T11:15:23.792Z,9.69
2023-02-01T11:20:32.988Z,9.84
2023-02-01T11:25:37.708Z,9.88
2023-02-01T11:30:45.186Z,9.72
2023-02-01T11:35:49.514Z,9.62
2023-02-01T11:40:52.694Z,9.62
2023-02-01T11:46:15.838Z,9.76
2023-02-01T11:51:33.915Z,9.88
2023-02-01T11:57:01.832Z,9.89
2023-02-01T12:02:38.065Z,9.72
2023-02-01T12:07:47.335Z,9.83
2023-02-01T12:12:56.175Z,9.75
2023-02-01T12:18:44.306Z,9.82
2023-02-01T12:24:08.156Z,10.00
2023-02-01T12:29:39.026Z,10.14
2023-02-01T12:34:51.043Z,10.32
2023-02-01T12:40:18.666Z,10.12
2023-02-01T12:45:58.096Z,10.06
2023-02-01T12:51:14.145Z,10.05
2023-02-01T12:56:28.190Z,10.09
2023-02-01T13:01:56.512Z,10.24
2023-02-01T13:07:25.808Z,10.32
2023-02-01T13:12:46.171Z,10.33
2023-02-01T13:17:52.659Z,10.46
2023-02-01T13:23:04.545Z,10.62
2023-02-01T13:28:16.226Z,10.73
2023-02-01T13:33:53.560Z,10.77
2023-02-01T13:39:20.589Z,10.84
2023-02-01T13:44:49.944Z,11.09
2023-02-01T13:49:56.334Z,10.84
2023-02-01T13:55:21.431Z,10.74
2023-02-01T14:00:30.632Z,10.70
2023-02-01T14:05:33.791Z,10.61
2023-02-01T14:10:46.392Z,10.63
2023-02-01T14:16:04.941Z,10.76
2023-02-01T14:21:29.358Z,10.80
2023-02-01T14:26:35.734Z,10.92
2023-02-01T14:32:01.202Z,10.89
2023-02-01T14:37:09.951Z,10.77
2023-02-01T14:42:22.697Z,10.73
2023-02-01T14:47:25.869Z,10.71
2023-02-01T14:52:35.276Z,10.64
2023-02-01T14:57:41.976Z,10.64
2023-02-01T15:02:48.834Z,10.63
2023-02-01T15:07:52.948Z,10.48
2023-02-01T15:12:56.126Z,10.36
2023-02-01T15:18:00.611Z,10.27
2023-02-01T15:23:06.444Z,10.19
2023-02-01T15:28:17.488Z,10.14
2023-02-01T15:33:21.547Z,10.18
2023-02-01T15:38:24.812Z,10.27
2023-02-01T15:43:29.498Z,10.39
2023-02-01T15:48:39.149Z,10.39
2023-02-01T15:53:59.683Z,9.86
2023-02-01T15:59:08.135Z,9.20
2023-02-01T16:04:17.551Z,8.67
2023-02-01T16:09:24.073Z,8.49
2023-02-01T16:14:28.156Z,8.58
2023-02-01T16:19:31.318Z,8.69
2023-02-01T16:24:34.344Z,8.90
2023-02-01T16:29:37.431Z,9.14
2023-02-01T16:34:40.625Z,9.23
2023-02-01T16:39:43.671Z,9.36
2023-02-01T16:44:46.816Z,9.40
2023-02-01T16:49:50.113Z,9.45
2023-02-01T16:54:56.215Z,9.68
2023-02-01T17:00:22.241Z,9.87
2023-02-01T17:05:36.028Z,10.00
2023-02-01T17:10:39.310Z,10.04
2023-02-01T17:16:05.279Z,10.03
2023-02-01T17:21:10.730Z,10.16
2023-02-01T17:26:14.108Z,10.23
2023-02-01T17:31:18.602Z,10.37
2023-02-01T17:36:22.055Z,10.47
2023-02-01T17:41:27.448Z,10.50
2023-02-01T17:46:33.359Z,10.30
2023-02-01T17:51:37.023Z,10.17
2023-02-01T17:56:43.342Z,10.21
2023-02-01T18:01:50.813Z,10.25
2023-02-01T18:06:53.764Z,10.25
2023-02-01T18:11:56.804Z,10.18
2023-02-01T18:16:59.974Z,10.16
2023-02-01T18:22:03.161Z,10.25
2023-02-01T18:27:06.073Z,10.36
2023-02-01T18:32:10.926Z,10.40
2023-02-01T18:37:16.903Z,10.40
2023-02-01T18:42:25.066Z,10.33
2023-02-01T18:47:27.981Z,10.13
2023-02-01T18:52:31.129Z,9.93
2023-02-01T18:57:34.291Z,9.67
2023-02-01T19:02:38.034Z,9.14
2023-02-01T19:07:42.871Z,8.93
2023-02-01T19:12:46.448Z,8.94
2023-02-01T19:17:52.526Z,9.15
2023-02-01T19:22:55.679Z,9.32
2023-02-01T19:27:59.155Z,9.50
2023-02-01T19:33:03.175Z,9.70
2023-02-01T19:38:06.602Z,9.89
2023-02-01T19:43:09.727Z,9.96
2023-02-01T19:48:12.960Z,10.09
2023-02-01T19:53:16.377Z,10.20
2023-02-01T19:58:19.544Z,10.25
2023-02-01T20:03:23.521Z,10.31
2023-02-01T20:08:27.746Z,10.22
2023-02-01T20:13:30.843Z,10.06
2023-02-01T20:18:34.000Z,9.97
2023-02-01T20:23:37.169Z,9.90
2023-02-01T20:28:41.619Z,9.42
2023-02-01T20:33:44.751Z,8.65
2023-02-01T20:38:47.994Z,8.29
2023-02-01T20:43:51.184Z,8.23
2023-02-01T20:48:55.458Z,8.38
2023-02-01T20:53:58.521Z,8.59
2023-02-01T20:59:01.684Z,8.78
2023-02-01T21:04:04.817Z,8.93
2023-02-01T21:09:08.237Z,9.03
2023-02-01T21:14:11.862Z,9.15
2023-02-01T21:19:15.225Z,9.32
2023-02-01T21:24:18.304Z,9.48
2023-02-01T21:29:22.538Z,9.58
2023-02-01T21:34:27.125Z,9.67
2023-02-01T21:39:30.283Z,9.59
2023-02-01T21:44:33.370Z,9.42
2023-02-01T21:49:37.749Z,9.38
2023-02-01T21:54:43.292Z,9.41
2023-02-01T21:59:46.377Z,9.37
2023-02-01T22:04:49.410Z,9.32
2023-02-01T22:09:52.538Z,9.36
2023-02-01T22:14:55.838Z,9.49
2023-02-01T22:19:58.812Z,9.62
2023-02-01T22:25:01.716Z,9.70
2023-02-01T22:30:06.234Z,9.75
2023-02-01T22:35:09.866Z,9.71
2023-02-01T22:40:14.997Z,9.66
2023-02-01T22:45:18.101Z,9.65
2023-02-01T22:50:21.392Z,9.67
2023-02-01T22:55:24.852Z,9.64
2023-02-01T23:00:28.877Z,9.58
2023-02-01T23:05:31.982Z,9.66
2023-02-01T23:10:35.422Z,9.75
2023-02-01T23:15:41.332Z,9.77
2023-02-01T23:20:45.047Z,9.75
2023-02-01T23:25:51.923Z,9.53
2023-02-01T23:30:55.151Z,9.44
2023-02-01T23:36:01.057Z,9.41
2023-02-01T23:41:07.853Z,9.46
2023-02-01T23:46:11.639Z,9.55
2023-02-01T23:51:15.681Z,9.56
2023-02-01T23:56:33.669Z,9.60
